Time;durP1;ratioP1;P1;durP2;ratioP2;P2;SDS_P1;SDS_P2;PMS_P1;PMS_P2;Temp;Humidity;BMP_temperature;BMP_pressure;BME280_temperature;BME280_humidity;BME280_pressure;Samples;Min_cycle;Max_cycle;Signal;HPM_P1;HPM_P2
2023/04/22 00:02:05;;;;;;;9.85;5.57;;;12.50;99.90;;;;;;5108683;27;20031;-94
2023/04/22 00:04:32;;;;;;;10.77;5.65;;;12.40;99.90;;;;;;5096140;27;20027;-95
2023/04/22 00:06:58;;;;;;;12.57;9.25;;;12.30;99.90;;;;;;5109397;27;20373;-94
2023/04/22 00:09:24;;;;;;;11.65;8.68;;;12.40;99.90;;;;;;5109086;27;20046;-95
2023/04/22 00:11:50;;;;;;;10.48;5.22;;;12.40;99.90;;;;;;5126312;27;20037;-94
2023/04/22 00:14:16;;;;;;;11.30;5.40;;;12.40;99.90;;;;;;5110081;27;20031;-94
2023/04/22 00:16:42;;;;;;;11.82;6.88;;;12.30;99.90;;;;;;5099737;27;20033;-93
2023/04/22 00:19:07;;;;;;;10.35;6.55;;;12.20;99.90;;;;;;5120912;27;20047;-95
2023/04/22 00:21:33;;;;;;;9.32;5.03;;;12.20;99.90;;;;;;5123498;27;20035;-93
2023/04/22 00:23:59;;;;;;;8.95;5.05;;;12.10;99.90;;;;;;5113188;27;20121;-94
2023/04/22 00:26:24;;;;;;;9.93;5.63;;;12.10;99.90;;;;;;5126321;27;20392;-93
2023/04/22 00:28:50;;;;;;;9.13;5.35;;;12.10;99.90;;;;;;5109011;27;20449;-92
2023/04/22 00:31:16;;;;;;;10.65;6.10;;;12.00;99.90;;;;;;5106987;27;20035;-93
2023/04/22 00:33:41;;;;;;;10.10;5.60;;;12.00;99.90;;;;;;5116687;27;20035;-94
2023/04/22 00:36:07;;;;;;;9.82;5.75;;;11.90;99.90;;;;;;5116739;27;20077;-95
2023/04/22 00:38:33;;;;;;;12.00;5.82;;;11.90;99.90;;;;;;5100209;27;20475;-95
2023/04/22 00:40:59;;;;;;;9.05;4.55;;;11.90;99.90;;;;;;5096321;27;20041;-94
2023/04/22 00:43:24;;;;;;;8.95;6.90;;;11.80;99.90;;;;;;5100044;27;20027;-95
2023/04/22 00:45:50;;;;;;;8.50;4.43;;;11.80;99.90;;;;;;5094351;28;20032;-96
2023/04/22 00:48:15;;;;;;;7.82;4.45;;;11.70;99.90;;;;;;5113692;27;20043;-94
2023/04/22 00:50:41;;;;;;;10.38;4.63;;;11.60;99.90;;;;;;5116176;27;20043;-94
2023/04/22 00:53:07;;;;;;;8.45;4.60;;;11.60;99.90;;;;;;5091541;28;20047;-94
2023/04/22 00:55:33;;;;;;;9.68;4.90;;;11.50;99.90;;;;;;5079188;28;20046;-95
2023/04/22 00:58:01;;;;;;;8.70;5.20;;;11.50;99.90;;;;;;5086876;28;20147;-94
2023/04/22 01:00:27;;;;;;;10.82;5.50;;;11.50;99.90;;;;;;5078569;28;20417;-95
2023/04/22 01:02:54;;;;;;;9.68;5.85;;;11.50;99.90;;;;;;5082758;27;20038;-94
2023/04/22 01:05:20;;;;;;;9.15;5.00;;;11.50;99.90;;;;;;5098665;27;20031;-93
2023/04/22 01:07:46;;;;;;;9.27;5.13;;;11.50;99.90;;;;;;5099462;27;20177;-94
2023/04/22 01:10:12;;;;;;;9.95;4.32;;;11.50;99.90;;;;;;5079779;28;20612;-93
2023/04/22 01:12:37;;;;;;;7.82;3.50;;;11.40;99.90;;;;;;5095807;28;20050;-94
2023/04/22 01:15:03;;;;;;;6.78;2.90;;;11.30;99.90;;;;;;5095333;28;20100;-94
2023/04/22 01:17:30;;;;;;;10.50;4.55;;;11.20;99.90;;;;;;5092580;27;20508;-94
2023/04/22 01:19:58;;;;;;;7.55;3.50;;;11.10;99.90;;;;;;5098352;27;20031;-95
2023/04/22 01:22:32;;;;;;;7.78;3.80;;;11.10;99.90;;;;;;5096114;27;20039;-93
2023/04/22 01:24:58;;;;;;;5.43;2.00;;;11.00;99.90;;;;;;5116137;27;20058;-94
2023/04/22 01:27:24;;;;;;;5.10;2.08;;;10.80;99.90;;;;;;5115642;27;20488;-93
2023/04/22 01:29:51;;;;;;;6.50;2.30;;;10.60;99.90;;;;;;5097345;27;20115;-93
2023/04/22 01:32:17;;;;;;;4.90;2.25;;;10.50;99.90;;;;;;5099045;27;20692;-94
2023/04/22 01:34:42;;;;;;;5.07;2.00;;;10.50;99.90;;;;;;5109589;28;20032;-93
2023/04/22 01:37:08;;;;;;;5.47;2.17;;;10.40;99.90;;;;;;5114077;27;20042;-94
2023/04/22 01:39:34;;;;;;;6.25;2.25;;;10.30;99.90;;;;;;5098039;27;20082;-94
2023/04/22 01:42:02;;;;;;;5.22;2.30;;;10.30;99.90;;;;;;5113248;27;20027;-93
2023/04/22 01:44:27;;;;;;;5.63;2.30;;;10.30;99.90;;;;;;5098421;27;20042;-94
2023/04/22 01:46:53;;;;;;;5.57;2.38;;;10.40;99.90;;;;;;5098606;27;20027;-94
2023/04/22 01:49:20;;;;;;;6.20;2.60;;;10.40;99.90;;;;;;5106722;28;20036;-94
2023/04/22 01:51:45;;;;;;;6.78;2.85;;;10.40;99.90;;;;;;5078070;28;20400;-94
2023/04/22 01:54:11;;;;;;;6.85;3.30;;;10.40;99.90;;;;;;5098683;27;20039;-94
2023/04/22 01:56:39;;;;;;;7.15;3.50;;;10.40;99.90;;;;;;5098608;28;20410;-94
2023/04/22 01:59:05;;;;;;;7.07;3.05;;;10.40;99.90;;;;;;5094060;28;20032;-94
2023/04/22 02:01:31;;;;;;;8.13;3.88;;;10.40;99.90;;;;;;5128081;27;20047;-94
2023/04/22 02:03:57;;;;;;;5.30;2.35;;;10.40;99.90;;;;;;5095040;28;20035;-93
2023/04/22 02:06:22;;;;;;;7.45;2.28;;;10.40;99.90;;;;;;5103433;28;20515;-94
2023/04/22 02:08:48;;;;;;;6.32;2.70;;;10.40;99.90;;;;;;5115413;28;20070;-94
2023/04/22 02:11:13;;;;;;;6.15;2.60;;;10.30;99.90;;;;;;5113939;28;20042;-95
2023/04/22 02:13:40;;;;;;;11.77;2.63;;;10.10;99.90;;;;;;5082747;28;20470;-94
2023/04/22 02:16:06;;;;;;;6.82;2.88;;;9.90;99.90;;;;;;5082659;28;20117;-93
2023/04/22 02:18:32;;;;;;;6.30;2.60;;;9.90;99.90;;;;;;5087526;27;20523;-93
2023/04/22 02:20:57;;;;;;;6.22;2.47;;;9.90;99.90;;;;;;5101489;27;20035;-93
2023/04/22 02:23:24;;;;;;;6.47;2.63;;;9.90;99.90;;;;;;5102374;27;20515;-93
2023/04/22 02:25:51;;;;;;;6.70;2.70;;;9.90;99.90;;;;;;5089011;28;20062;-93
2023/04/22 02:28:18;;;;;;;6.28;2.63;;;9.90;99.90;;;;;;5082394;28;20396;-94
2023/04/22 02:30:47;;;;;;;5.93;2.55;;;9.90;99.90;;;;;;5090951;27;20043;-94
2023/04/22 02:33:12;;;;;;;5.38;2.30;;;9.80;99.90;;;;;;5102474;27;20051;-95
2023/04/22 02:35:38;;;;;;;4.90;2.10;;;9.90;99.90;;;;;;5102163;27;20042;-93
2023/04/22 02:38:04;;;;;;;6.28;2.70;;;9.90;99.90;;;;;;5116111;27;20039;-94
2023/04/22 02:40:30;;;;;;;105.93;5.93;;;9.90;99.90;;;;;;5118034;27;20088;-93
2023/04/22 02:42:55;;;;;;;61.22;4.13;;;9.80;99.90;;;;;;5098647;27;20047;-94
2023/04/22 02:45:21;;;;;;;4.75;1.90;;;9.80;99.90;;;;;;5086942;28;20036;-94
2023/04/22 02:47:47;;;;;;;6.97;3.10;;;9.80;99.90;;;;;;5081015;28;20043;-93
2023/04/22 02:50:12;;;;;;;6.60;3.15;;;9.70;99.90;;;;;;5099695;27;20035;-93
2023/04/22 02:52:38;;;;;;;6.20;2.70;;;9.70;99.90;;;;;;5101791;27;20055;-94
2023/04/22 02:55:04;;;;;;;8.35;1.75;;;9.70;99.90;;;;;;5097944;27;20050;-93
2023/04/22 02:57:30;;;;;;;9.25;1.33;;;9.70;99.90;;;;;;5101290;27;20046;-93
2023/04/22 02:59:56;;;;;;;8.77;1.33;;;9.70;99.90;;;;;;5117897;27;20039;-93
2023/04/22 03:02:22;;;;;;;2.63;1.40;;;9.60;99.90;;;;;;5096030;27;20031;-94
2023/04/22 03:04:47;;;;;;;6.10;2.33;;;9.50;99.90;;;;;;5118870;27;20038;-94
2023/04/22 03:07:13;;;;;;;4.47;1.83;;;9.40;99.90;;;;;;5097127;27;20232;-94
2023/04/22 03:09:39;;;;;;;4.90;1.92;;;9.40;99.90;;;;;;5082896;28;20039;-94
2023/04/22 03:12:05;;;;;;;5.88;2.45;;;9.40;99.90;;;;;;5081860;27;20047;-94
2023/04/22 03:14:30;;;;;;;5.95;2.33;;;9.30;99.90;;;;;;5114107;27;20492;-94
2023/04/22 03:16:56;;;;;;;4.68;1.83;;;9.30;99.90;;;;;;5101637;27;20381;-94
2023/04/22 03:19:21;;;;;;;4.03;1.80;;;9.30;99.90;;;;;;5091707;27;20051;-93
2023/04/22 03:21:47;;;;;;;3.85;1.58;;;9.30;99.90;;;;;;5112877;28;20046;-94
2023/04/22 03:24:13;;;;;;;3.40;1.58;;;9.30;99.90;;;;;;5117526;27;20083;-93
2023/04/22 03:26:38;;;;;;;4.25;1.73;;;9.30;99.90;;;;;;5101154;27;20118;-94
2023/04/22 03:29:04;;;;;;;6.53;2.90;;;9.20;99.90;;;;;;5118258;27;20129;-95
2023/04/22 03:31:30;;;;;;;10.20;5.22;;;9.30;99.90;;;;;;5091493;27;20035;-95
2023/04/22 03:33:55;;;;;;;9.10;5.55;;;9.30;99.90;;;;;;5118884;27;20043;-96
2023/04/22 03:36:21;;;;;;;6.25;2.90;;;9.30;99.90;;;;;;5119351;27;20035;-95
2023/04/22 03:38:47;;;;;;;6.95;3.50;;;9.30;99.90;;;;;;5109042;28;20093;-96
2023/04/22 03:41:12;;;;;;;7.43;3.67;;;9.30;99.90;;;;;;5097811;28;20126;-94
2023/04/22 03:43:38;;;;;;;8.75;4.88;;;9.20;99.90;;;;;;5080864;28;20036;-95
2023/04/22 03:46:04;;;;;;;9.55;5.13;;;9.20;99.90;;;;;;5099115;28;20509;-94
2023/04/22 03:48:34;;;;;;;8.55;4.40;;;9.20;99.90;;;;;;5082162;27;20118;-96
2023/04/22 03:51:00;;;;;;;7.72;3.50;;;9.20;99.90;;;;;;5100769;27;20092;-96
2023/04/22 03:53:25;;;;;;;7.88;2.95;;;9.10;99.90;;;;;;5101745;27;20039;-95
2023/04/22 03:55:51;;;;;;;6.70;2.70;;;9.10;99.90;;;;;;5086644;28;20507;-95
2023/04/22 03:58:17;;;;;;;9.20;3.92;;;9.10;99.90;;;;;;5080900;28;20039;-95
2023/04/22 04:00:43;;;;;;;8.27;3.88;;;9.00;99.90;;;;;;5095277;27;20027;-94
2023/04/22 04:03:08;;;;;;;8.85;4.85;;;9.00;99.90;;;;;;5100588;27;20130;-94
2023/04/22 04:05:35;;;;;;;10.05;5.80;;;9.00;99.90;;;;;;5100840;27;20106;-95
2023/04/22 04:08:01;;;;;;;8.45;4.82;;;9.00;99.90;;;;;;5117469;27;20039;-95
2023/04/22 04:10:26;;;;;;;7.78;4.40;;;9.00;99.90;;;;;;5100361;27;20098;-95
2023/04/22 04:12:52;;;;;;;7.80;4.15;;;9.10;99.90;;;;;;5095921;28;20042;-95
2023/04/22 04:15:18;;;;;;;9.73;4.38;;;9.10;99.90;;;;;;5117245;27;20035;-95
2023/04/22 04:17:44;;;;;;;9.35;5.25;;;9.00;99.90;;;;;;5100424;27;20243;-96
2023/04/22 04:20:11;;;;;;;9.20;5.53;;;9.10;99.90;;;;;;5109316;27;20031;-95
2023/04/22 04:22:37;;;;;;;9.68;5.47;;;9.10;99.90;;;;;;5116984;27;20035;-95
2023/04/22 04:25:03;;;;;;;8.95;4.97;;;9.10;99.90;;;;;;5099424;27;20031;-94
2023/04/22 04:27:29;;;;;;;9.60;5.40;;;9.10;99.90;;;;;;5100520;27;20031;-93
2023/04/22 04:29:55;;;;;;;10.43;5.53;;;9.10;99.90;;;;;;5099770;27;20039;-94
2023/04/22 04:32:21;;;;;;;10.82;6.32;;;9.10;99.90;;;;;;5116345;27;20043;-95
2023/04/22 04:34:46;;;;;;;10.80;6.72;;;9.10;99.90;;;;;;5116997;27;20043;-96
2023/04/22 04:37:12;;;;;;;11.57;6.95;;;9.10;99.90;;;;;;5100420;27;20081;-96
2023/04/22 04:39:38;;;;;;;10.63;6.18;;;9.10;99.90;;;;;;5100329;27;20043;-96
2023/04/22 04:42:03;;;;;;;8.70;5.07;;;9.20;99.90;;;;;;5101488;27;20103;-96
2023/04/22 04:44:32;;;;;;;9.45;5.80;;;9.10;99.90;;;;;;5100486;27;20054;-95
2023/04/22 04:46:58;;;;;;;9.77;5.72;;;9.10;99.90;;;;;;5084484;28;20063;-96
2023/04/22 04:49:24;;;;;;;10.32;5.65;;;9.20;99.90;;;;;;5100336;28;20069;-96
2023/04/22 04:51:50;;;;;;;11.05;7.18;;;9.20;99.90;;;;;;5111162;27;20050;-96
2023/04/22 04:54:15;;;;;;;11.50;7.85;;;9.20;99.90;;;;;;5123821;27;20053;-95
2023/04/22 04:56:41;;;;;;;10.85;6.68;;;9.30;99.90;;;;;;5119595;27;20030;-95
2023/04/22 04:59:07;;;;;;;10.93;7.30;;;9.30;99.90;;;;;;5118579;27;20054;-93
2023/04/22 05:01:32;;;;;;;12.15;7.63;;;9.30;99.90;;;;;;5118838;27;20042;-94
2023/04/22 05:03:58;;;;;;;12.65;7.18;;;9.30;99.90;;;;;;5119032;27;20030;-95
2023/04/22 05:06:23;;;;;;;11.82;8.45;;;9.40;99.90;;;;;;5120960;27;20043;-94
2023/04/22 05:08:49;;;;;;;12.93;8.68;;;9.40;99.90;;;;;;5120635;27;20042;-94
2023/04/22 05:11:15;;;;;;;13.60;9.15;;;9.40;99.90;;;;;;5137035;27;20050;-93
2023/04/22 05:13:40;;;;;;;13.65;8.70;;;9.40;99.90;;;;;;5119935;27;20491;-95
2023/04/22 05:16:06;;;;;;;13.23;9.25;;;9.50;99.90;;;;;;5120109;27;20068;-94
2023/04/22 05:18:31;;;;;;;13.75;8.57;;;9.50;99.90;;;;;;5136982;27;20398;-93
2023/04/22 05:20:58;;;;;;;13.32;9.20;;;9.60;99.90;;;;;;5119185;27;20424;-93
2023/04/22 05:23:24;;;;;;;14.15;9.73;;;9.60;99.90;;;;;;5136388;27;20039;-92
2023/04/22 05:25:51;;;;;;;16.95;9.57;;;9.60;99.90;;;;;;5136469;27;20041;-94
2023/04/22 05:28:17;;;;;;;14.65;9.43;;;9.60;99.90;;;;;;5119591;27;20049;-93
2023/04/22 05:30:42;;;;;;;15.13;9.48;;;9.70;99.90;;;;;;5119607;27;20398;-95
2023/04/22 05:33:08;;;;;;;14.55;10.13;;;9.70;99.90;;;;;;5136217;27;20039;-94
2023/04/22 05:35:34;;;;;;;16.90;10.98;;;9.70;99.90;;;;;;5118568;27;20454;-94
2023/04/22 05:38:01;;;;;;;15.15;10.38;;;9.70;99.90;;;;;;5118611;27;20035;-95
2023/04/22 05:40:27;;;;;;;14.80;10.65;;;9.80;99.90;;;;;;5135168;27;20042;-95
2023/04/22 05:42:53;;;;;;;17.35;11.98;;;9.80;99.90;;;;;;5118546;27;20041;-94
2023/04/22 05:45:18;;;;;;;16.70;11.90;;;9.90;99.90;;;;;;5118479;27;20077;-93
2023/04/22 05:47:44;;;;;;;16.23;11.60;;;9.90;99.90;;;;;;5135776;27;20070;-94
2023/04/22 05:50:10;;;;;;;19.30;11.48;;;10.00;99.90;;;;;;5136216;27;20061;-95
2023/04/22 05:52:35;;;;;;;16.10;12.13;;;10.00;99.90;;;;;;5136179;27;20034;-94
2023/04/22 05:55:01;;;;;;;17.20;12.30;;;10.10;99.90;;;;;;5119771;27;20037;-94
2023/04/22 05:57:27;;;;;;;17.58;11.98;;;10.10;99.90;;;;;;5136137;27;20556;-94
2023/04/22 05:59:52;;;;;;;17.92;12.05;;;10.20;99.90;;;;;;5135715;27;20039;-94
2023/04/22 06:02:18;;;;;;;18.20;13.02;;;10.20;99.90;;;;;;5136459;27;20035;-95
2023/04/22 06:04:43;;;;;;;17.70;12.13;;;10.30;99.90;;;;;;5136390;27;20483;-94
2023/04/22 06:07:10;;;;;;;16.83;11.63;;;10.30;99.90;;;;;;5119007;27;20038;-94
2023/04/22 06:09:35;;;;;;;23.70;13.90;;;10.40;99.90;;;;;;5118586;27;20467;-95
2023/04/22 06:12:01;;;;;;;17.40;12.82;;;10.40;99.90;;;;;;5109074;28;20513;-95
2023/04/22 06:14:26;;;;;;;17.00;11.90;;;10.50;99.90;;;;;;5107065;28;20049;-94
2023/04/22 06:16:52;;;;;;;19.63;12.93;;;10.50;99.90;;;;;;5097272;28;20043;-94
2023/04/22 06:19:18;;;;;;;19.98;13.55;;;10.60;99.90;;;;;;5113508;28;20126;-94
2023/04/22 06:21:44;;;;;;;17.55;13.02;;;10.60;99.90;;;;;;5112072;28;20036;-94
2023/04/22 06:24:10;;;;;;;17.52;13.10;;;10.60;99.90;;;;;;5095693;28;20088;-94
2023/04/22 06:26:36;;;;;;;17.23;12.85;;;10.70;99.90;;;;;;5096285;28;20087;-94
2023/04/22 06:29:04;;;;;;;17.00;12.13;;;10.70;99.90;;;;;;5112697;28;20035;-94
2023/04/22 06:31:30;;;;;;;17.83;12.27;;;10.70;99.90;;;;;;5095703;28;20043;-95
2023/04/22 06:33:57;;;;;;;17.80;11.90;;;10.80;99.90;;;;;;5112645;28;20070;-94
2023/04/22 06:36:23;;;;;;;20.15;11.43;;;10.80;99.90;;;;;;5112907;28;20051;-94
2023/04/22 06:38:48;;;;;;;18.88;11.77;;;10.90;99.90;;;;;;5098340;28;20182;-95
2023/04/22 06:41:14;;;;;;;16.27;11.43;;;10.90;99.90;;;;;;5114853;28;20040;-95
2023/04/22 06:43:40;;;;;;;18.55;12.20;;;11.00;99.90;;;;;;5115496;28;20039;-95
2023/04/22 06:46:05;;;;;;;17.45;11.55;;;11.00;99.90;;;;;;5115369;28;20038;-95
2023/04/22 06:48:31;;;;;;;18.80;11.77;;;11.10;99.90;;;;;;5115683;28;20053;-95
2023/04/22 06:50:57;;;;;;;15.90;11.75;;;11.10;99.90;;;;;;5114988;28;20039;-93
2023/04/22 06:53:22;;;;;;;15.52;10.15;;;11.20;99.90;;;;;;5114999;28;20046;-95
2023/04/22 06:55:49;;;;;;;21.13;11.93;;;11.20;99.90;;;;;;5098144;28;20039;-94
2023/04/22 06:58:14;;;;;;;15.30;10.98;;;11.20;99.90;;;;;;5100360;27;20075;-94
2023/04/22 07:00:40;;;;;;;21.45;11.77;;;11.30;99.90;;;;;;5101919;27;20154;-94
2023/04/22 07:03:05;;;;;;;19.33;11.45;;;11.40;99.90;;;;;;5101733;27;20035;-94
2023/04/22 07:05:31;;;;;;;15.10;10.68;;;11.50;99.90;;;;;;5101895;27;20122;-94
2023/04/22 07:07:57;;;;;;;15.73;9.90;;;11.50;99.90;;;;;;5118965;27;20035;-95
2023/04/22 07:10:23;;;;;;;15.48;10.70;;;11.60;99.90;;;;;;5101999;27;20062;-95
2023/04/22 07:12:48;;;;;;;16.98;11.98;;;11.60;99.90;;;;;;5101977;27;20065;-94
2023/04/22 07:15:14;;;;;;;17.88;10.90;;;11.70;99.90;;;;;;5111435;27;20043;-94
2023/04/22 07:17:40;;;;;;;15.73;11.02;;;11.70;99.90;;;;;;5136874;27;20050;-95
2023/04/22 07:20:07;;;;;;;17.23;10.20;;;11.80;99.90;;;;;;5118042;27;20048;-95
2023/04/22 07:22:32;;;;;;;18.00;16.30;;;11.90;99.90;;;;;;5098214;28;20039;-94
2023/04/22 07:24:59;;;;;;;17.17;11.63;;;12.00;99.90;;;;;;5081388;28;20040;-94
2023/04/22 07:27:24;;;;;;;14.98;9.77;;;12.10;99.90;;;;;;5081091;28;20046;-95
2023/04/22 07:29:50;;;;;;;18.75;11.07;;;12.10;99.90;;;;;;5080791;28;20040;-94
2023/04/22 07:32:16;;;;;;;15.68;10.98;;;12.20;99.90;;;;;;5081221;28;20492;-94
2023/04/22 07:34:41;;;;;;;13.00;8.98;;;12.30;99.90;;;;;;5080762;28;20069;-94
2023/04/22 07:37:08;;;;;;;15.60;9.35;;;12.40;99.90;;;;;;5080651;28;20044;-95
2023/04/22 07:39:34;;;;;;;15.73;10.43;;;12.40;99.90;;;;;;5097144;28;20075;-94
2023/04/22 07:42:01;;;;;;;16.13;10.63;;;12.50;99.90;;;;;;5080513;28;20071;-95
2023/04/22 07:44:26;;;;;;;15.07;9.45;;;12.60;99.90;;;;;;5097404;28;20040;-94
2023/04/22 07:46:52;;;;;;;16.27;14.57;;;12.70;99.90;;;;;;5080842;28;20039;-94
2023/04/22 07:49:18;;;;;;;16.17;9.95;;;12.80;99.90;;;;;;5080351;28;20035;-93
2023/04/22 07:51:44;;;;;;;16.25;14.63;;;12.90;99.90;;;;;;5097409;28;20049;-94
2023/04/22 07:54:10;;;;;;;13.90;9.77;;;13.00;99.90;;;;;;5097885;28;20672;-94
2023/04/22 07:56:35;;;;;;;15.00;10.50;;;13.10;99.90;;;;;;5080288;28;20535;-94
2023/04/22 07:59:02;;;;;;;15.57;10.93;;;13.20;99.90;;;;;;5080083;28;20096;-93
2023/04/22 08:01:27;;;;;;;14.68;13.15;;;13.30;99.90;;;;;;5097150;28;20166;-93
2023/04/22 08:03:53;;;;;;;13.70;8.80;;;13.40;99.90;;;;;;5097205;28;20521;-93
2023/04/22 08:06:19;;;;;;;12.93;8.82;;;13.50;99.90;;;;;;5080452;28;20040;-93
2023/04/22 08:08:44;;;;;;;15.48;9.70;;;13.60;99.90;;;;;;5096955;28;20067;-94
2023/04/22 08:11:10;;;;;;;13.35;9.10;;;13.70;99.90;;;;;;5079460;28;20500;-93
2023/04/22 08:13:36;;;;;;;15.13;13.63;;;13.90;99.90;;;;;;5079896;28;20412;-93
2023/04/22 08:16:02;;;;;;;14.35;9.18;;;14.00;99.90;;;;;;5096579;28;20093;-92
2023/04/22 08:18:28;;;;;;;13.93;12.35;;;14.20;99.90;;;;;;5079686;28;20068;-93
2023/04/22 08:20:54;;;;;;;14.32;9.18;;;14.30;99.90;;;;;;5079800;28;20047;-93
2023/04/22 08:23:20;;;;;;;13.90;12.50;;;14.30;99.90;;;;;;5096381;28;20511;-93
2023/04/22 08:25:46;;;;;;;14.05;9.23;;;14.50;99.90;;;;;;5079485;28;20043;-93
2023/04/22 08:28:13;;;;;;;13.93;8.32;;;14.60;99.90;;;;;;5096260;28;20039;-93
2023/04/22 08:30:39;;;;;;;14.13;10.90;;;14.60;99.90;;;;;;5079525;28;20126;-93
2023/04/22 08:33:05;;;;;;;12.57;8.95;;;14.70;99.90;;;;;;5086919;27;20713;-94
2023/04/22 08:35:32;;;;;;;13.48;11.65;;;14.80;99.90;;;;;;5120356;27;20058;-95
2023/04/22 08:37:58;;;;;;;11.95;10.60;;;15.00;99.90;;;;;;5116972;27;20175;-93
2023/04/22 08:40:24;;;;;;;12.38;8.35;;;15.20;99.90;;;;;;5128100;27;20512;-94
2023/04/22 08:42:51;;;;;;;11.65;8.80;;;15.30;99.90;;;;;;5110320;27;20031;-94
2023/04/22 08:45:17;;;;;;;11.63;10.40;;;15.40;99.90;;;;;;5117699;27;20491;-93
2023/04/22 08:47:43;;;;;;;12.50;9.52;;;15.50;99.90;;;;;;5120300;27;20049;-93
2023/04/22 08:50:09;;;;;;;11.65;10.13;;;15.60;99.90;;;;;;5136818;27;20031;-93
2023/04/22 08:52:36;;;;;;;12.23;10.40;;;15.80;99.90;;;;;;5136914;27;20045;-93
2023/04/22 08:55:02;;;;;;;13.93;10.85;;;16.00;99.90;;;;;;5136609;27;20406;-94
2023/04/22 08:57:29;;;;;;;11.75;10.18;;;16.10;99.90;;;;;;5136680;27;20114;-95
2023/04/22 08:59:55;;;;;;;11.32;9.48;;;16.20;99.90;;;;;;5136735;27;20031;-94
2023/04/22 09:02:23;;;;;;;12.13;9.13;;;16.30;99.90;;;;;;5119805;27;20053;-93
2023/04/22 09:04:50;;;;;;;12.68;9.35;;;16.50;99.90;;;;;;5136741;27;20429;-94
2023/04/22 09:07:30;;;;;;;12.00;9.43;;;16.50;99.90;;;;;;5119742;27;20034;-95
2023/04/22 09:09:56;;;;;;;11.07;9.25;;;16.60;99.90;;;;;;5133084;27;20342;-94
2023/04/22 09:12:23;;;;;;;10.88;9.48;;;16.70;99.90;;;;;;5106659;27;20042;-94
2023/04/22 09:14:50;;;;;;;12.00;10.30;;;16.80;99.90;;;;;;5088200;27;20130;-94
2023/04/22 09:17:17;;;;;;;11.10;9.00;;;17.00;99.90;;;;;;5112943;27;20035;-94
2023/04/22 09:19:43;;;;;;;11.52;9.68;;;17.10;99.90;;;;;;5088605;28;20027;-94
2023/04/22 09:22:13;;;;;;;11.45;8.88;;;17.20;99.90;;;;;;5104963;27;20104;-94
2023/04/22 09:24:43;;;;;;;10.50;8.18;;;17.30;99.90;;;;;;5086853;28;20042;-94
2023/04/22 09:27:10;;;;;;;11.40;8.88;;;17.50;99.90;;;;;;5111736;27;20079;-94
2023/04/22 09:29:35;;;;;;;10.30;8.00;;;17.60;99.90;;;;;;5088287;27;20441;-94
2023/04/22 09:32:09;;;;;;;9.85;7.20;;;17.70;99.90;;;;;;5087025;27;20078;-95
2023/04/22 09:34:53;;;;;;;11.63;6.80;;;17.80;98.80;;;;;;5084869;28;20070;-95
2023/04/22 09:37:23;;;;;;;11.02;7.07;;;17.90;95.60;;;;;;5095329;28;20031;-95
2023/04/22 09:39:49;;;;;;;9.90;7.15;;;17.90;94.30;;;;;;5077963;28;20036;-95
2023/04/22 09:42:18;;;;;;;11.25;7.15;;;17.90;96.10;;;;;;5078447;28;20039;-95
2023/04/22 09:44:51;;;;;;;9.57;6.95;;;18.00;94.90;;;;;;5103074;27;20616;-95
2023/04/22 09:47:17;;;;;;;10.25;7.25;;;18.10;94.20;;;;;;5126092;27;20066;-94
2023/04/22 09:49:48;;;;;;;9.23;6.60;;;18.20;92.40;;;;;;5106932;27;20042;-95
2023/04/22 09:52:25;;;;;;;9.23;6.28;;;18.30;94.30;;;;;;5125289;27;20411;-95
2023/04/22 09:54:52;;;;;;;10.63;7.28;;;18.40;96.20;;;;;;5123596;27;20035;-95
2023/04/22 09:57:19;;;;;;;10.65;7.80;;;18.50;97.60;;;;;;5124782;27;20488;-94
2023/04/22 09:59:44;;;;;;;9.88;7.53;;;18.70;98.80;;;;;;5123831;27;20035;-95
2023/04/22 10:02:10;;;;;;;11.15;7.28;;;18.80;99.60;;;;;;5108316;27;20545;-94
2023/04/22 10:04:36;;;;;;;9.10;6.45;;;18.90;94.30;;;;;;5108962;27;20396;-95
2023/04/22 10:07:02;;;;;;;10.15;6.68;;;18.90;92.60;;;;;;5106926;27;20084;-94
2023/04/22 10:09:28;;;;;;;9.55;6.32;;;19.10;93.60;;;;;;5107664;27;20047;-95
2023/04/22 10:11:57;;;;;;;9.43;6.88;;;19.10;92.90;;;;;;5125281;27;20027;-94
2023/04/22 10:14:23;;;;;;;9.38;6.43;;;19.30;93.80;;;;;;5109012;27;20084;-94
2023/04/22 10:16:53;;;;;;;9.00;6.40;;;19.40;91.20;;;;;;5107195;27;20484;-94
2023/04/22 10:19:21;;;;;;;9.73;6.30;;;19.50;90.30;;;;;;5094861;28;20053;-91
2023/04/22 10:21:51;;;;;;;9.20;5.95;;;19.50;88.60;;;;;;5086582;28;20080;-91
2023/04/22 10:24:18;;;;;;;16.02;6.85;;;19.60;89.40;;;;;;5080311;28;20484;-91
2023/04/22 10:26:55;;;;;;;11.63;7.10;;;19.60;84.50;;;;;;5094687;28;20560;-91
2023/04/22 10:29:21;;;;;;;9.32;7.10;;;19.60;84.80;;;;;;5077368;28;20043;-92
2023/04/22 10:32:02;;;;;;;12.10;7.20;;;19.70;84.90;;;;;;5077339;28;20039;-91
2023/04/22 10:34:31;;;;;;;10.82;7.07;;;19.80;85.70;;;;;;5081560;28;20036;-91
2023/04/22 10:37:08;;;;;;;9.93;6.72;;;19.90;82.90;;;;;;5081368;28;20039;-91
2023/04/22 10:39:34;;;;;;;9.80;6.45;;;20.00;85.70;;;;;;5080974;28;20400;-91
2023/04/22 10:42:05;;;;;;;9.43;6.50;;;20.10;82.70;;;;;;5081787;28;20454;-91
2023/04/22 10:45:02;;;;;;;10.75;7.05;;;20.20;83.00;;;;;;5098373;28;20044;-91
2023/04/22 10:47:30;;;;;;;9.43;7.22;;;20.40;83.10;;;;;;5081280;28;20047;-91
2023/04/22 10:50:16;;;;;;;10.30;7.20;;;20.50;81.40;;;;;;5080940;28;20039;-92
2023/04/22 10:52:44;;;;;;;9.38;6.65;;;20.50;76.40;;;;;;5081007;28;20043;-92
2023/04/22 10:55:10;;;;;;;11.35;7.70;;;20.40;78.00;;;;;;5081166;28;20040;-92
2023/04/22 10:57:41;;;;;;;10.75;7.28;;;20.50;78.60;;;;;;5081030;28;20039;-92
2023/04/22 11:00:28;;;;;;;11.38;7.32;;;20.40;76.70;;;;;;5080734;28;20048;-92
2023/04/22 11:03:07;;;;;;;9.13;6.88;;;20.50;76.90;;;;;;5097866;28;20046;-92
2023/04/22 11:05:34;;;;;;;11.55;6.70;;;20.60;78.40;;;;;;5094881;28;20073;-92
2023/04/22 11:08:22;;;;;;;10.93;7.38;;;20.80;80.60;;;;;;5077468;28;20057;-92
2023/04/22 11:10:52;;;;;;;10.05;7.00;;;21.00;81.90;;;;;;5076964;28;20039;-90
2023/04/22 11:13:21;;;;;;;10.77;7.10;;;21.20;79.00;;;;;;5095092;28;20496;-90
2023/04/22 11:15:53;;;;;;;10.70;7.20;;;21.40;77.20;;;;;;5097885;28;20078;-90
2023/04/22 11:18:24;;;;;;;9.73;7.25;;;21.40;75.50;;;;;;5080535;28;20036;-90
2023/04/22 11:20:52;;;;;;;9.52;7.43;;;21.30;73.00;;;;;;5097015;28;20058;-90
2023/04/22 11:23:26;;;;;;;9.88;7.40;;;21.30;74.40;;;;;;5097077;28;20039;-90
2023/04/22 11:26:00;;;;;;;9.82;7.28;;;21.10;73.00;;;;;;5089927;27;20084;-90
2023/04/22 11:28:26;;;;;;;11.27;7.32;;;21.20;74.10;;;;;;5090292;27;20036;-90
2023/04/22 11:30:52;;;;;;;10.00;7.07;;;21.30;75.70;;;;;;5089220;27;20487;-90
2023/04/22 11:33:19;;;;;;;10.70;7.32;;;21.40;74.20;;;;;;5108163;27;20399;-90
2023/04/22 11:35:44;;;;;;;10.20;7.43;;;21.60;74.70;;;;;;5089690;27;20042;-89
2023/04/22 11:38:10;;;;;;;10.88;7.72;;;21.80;72.10;;;;;;5106001;27;20047;-90
2023/04/22 11:40:38;;;;;;;9.63;7.57;;;21.70;72.40;;;;;;5107751;27;20027;-90
2023/04/22 11:43:06;;;;;;;10.27;7.68;;;21.80;72.90;;;;;;5106099;27;20032;-90
2023/04/22 11:45:33;;;;;;;10.25;7.15;;;21.80;72.10;;;;;;5089342;27;20035;-90
2023/04/22 11:48:00;;;;;;;9.77;6.55;;;21.80;72.20;;;;;;5088673;27;20469;-90
2023/04/22 11:50:28;;;;;;;18.08;8.55;;;21.90;72.40;;;;;;5089749;27;20089;-90
2023/04/22 11:53:00;;;;;;;15.63;7.38;;;22.00;73.00;;;;;;5091063;27;20450;-91
2023/04/22 11:55:34;;;;;;;11.40;7.03;;;22.20;73.40;;;;;;5089999;27;20085;-91
2023/04/22 11:58:07;;;;;;;9.52;6.78;;;22.50;73.10;;;;;;5117482;27;20323;-90
2023/04/22 12:00:39;;;;;;;9.70;6.90;;;22.70;72.70;;;;;;5100210;27;20039;-90
2023/04/22 12:03:14;;;;;;;12.23;7.88;;;22.90;71.30;;;;;;5100263;27;20055;-91
2023/04/22 12:05:48;;;;;;;10.52;6.70;;;23.20;70.40;;;;;;5100282;27;20039;-91
2023/04/22 12:08:16;;;;;;;12.07;6.72;;;23.40;69.90;;;;;;5116948;27;20464;-90
2023/04/22 12:10:44;;;;;;;9.50;6.65;;;23.30;67.30;;;;;;5099880;27;20043;-89
2023/04/22 12:13:17;;;;;;;9.70;6.82;;;23.30;68.40;;;;;;5099970;27;20057;-90
2023/04/22 12:15:44;;;;;;;9.30;6.15;;;23.40;67.40;;;;;;5100535;27;20047;-90
2023/04/22 12:18:11;;;;;;;10.48;6.55;;;23.40;67.20;;;;;;5099812;27;20039;-90
2023/04/22 12:20:39;;;;;;;12.07;7.10;;;23.30;66.20;;;;;;5099814;27;20031;-91
2023/04/22 12:23:10;;;;;;;8.45;6.10;;;23.20;66.10;;;;;;5099705;27;20118;-91
2023/04/22 12:25:35;;;;;;;9.82;6.20;;;23.20;67.70;;;;;;5099689;27;20039;-90
2023/04/22 12:28:01;;;;;;;9.10;6.70;;;23.20;65.40;;;;;;5099594;27;20399;-90
2023/04/22 12:30:27;;;;;;;12.40;6.70;;;23.10;64.40;;;;;;5099111;27;20127;-90
2023/04/22 12:32:53;;;;;;;10.10;6.20;;;23.10;65.50;;;;;;5099871;27;20032;-91
2023/04/22 12:35:18;;;;;;;8.82;5.97;;;23.00;65.50;;;;;;5099349;27;20509;-90
2023/04/22 12:37:44;;;;;;;10.25;7.10;;;23.00;66.00;;;;;;5116323;27;20031;-90
2023/04/22 12:40:10;;;;;;;9.55;6.70;;;23.10;65.70;;;;;;5099124;27;20151;-90